Atglen, Pennsylvania
Current Conditions -  °F | °C
As of 3:15 PM on Wednesday 26 Nov 2014 (Local Time) from KMQS Reporting Station
Light Snow Light Snow  
Wind Chill: 23°   Ceiling: 400
Heat Index: 32°   Visibility: 1mi
Dew Point: 32°   Wind: 12mph
Humidity: 100%   Direction: 10°N
Pressure: 29.83"   Gusts: 18mph
Location:  39.95°N, 75.97°W
Report Text: KMQS 262015Z AUTO 01010G16KT 1SM -SN OVC004 00/00 A2983 RMK AO2 P0001
Loading
Personal Weather Stations






























Interactive Weather Map New forecast layout! Learn more

10-Day Weather Forecast

Advertisements
Track Severe Weather on mobile